Terminal Aerodrome Forecast
Issued by NWS Sioux Falls, SD

Home | Current Version | Previous Version | Graphics & Text | Print | Product List | Glossary On
Versions: 1 2 3 4 5 6 7 8 9 10 11 12 13 14 15 16
823
FTUS43 KFSD 201432 AAA
TAFHON
TAF AMD
KHON 201432Z 2015/2112 22011KT P6SM SCT020 OVC070
     FM201600 26013KT P6SM BKN050
     FM201700 30015G23KT P6SM BKN100
     FM202000 31016G24KT P6SM SCT200
     FM210000 29008KT P6SM SKC
     FM210300 23005KT P6SM FEW250
     FM210900 17008KT P6SM FEW250=

USA.gov is the U.S. government's official web portal to all federal, state and local government web resources and services.